createdAt,value
2022-12-27T00:00:07.430Z,84.93
2022-12-27T00:02:36.911Z,84.24
2022-12-27T00:05:05.007Z,84.73
2022-12-27T00:07:31.588Z,86.73
2022-12-27T00:09:59.002Z,86.24
2022-12-27T00:12:25.899Z,86.81
2022-12-27T00:14:52.630Z,86.56
2022-12-27T00:17:19.229Z,87.30
2022-12-27T00:19:45.814Z,88.50
2022-12-27T00:22:12.389Z,88.67
2022-12-27T00:24:38.946Z,87.84
2022-12-27T00:27:05.523Z,87.45
2022-12-27T00:29:32.474Z,88.73
2022-12-27T00:31:59.295Z,88.22
2022-12-27T00:34:26.046Z,88.21
2022-12-27T00:36:52.682Z,88.46
2022-12-27T00:39:19.346Z,88.72
2022-12-27T00:41:46.415Z,89.49
2022-12-27T00:44:13.564Z,89.23
2022-12-27T00:46:40.621Z,89.09
2022-12-27T00:49:07.263Z,89.12
2022-12-27T00:51:34.061Z,89.66
2022-12-27T00:54:00.806Z,89.63
2022-12-27T00:56:30.270Z,89.90
2022-12-27T00:58:59.282Z,90.32
2022-12-27T01:01:27.716Z,90.46
2022-12-27T01:03:54.543Z,91.02
2022-12-27T01:06:24.483Z,90.55
2022-12-27T01:08:52.278Z,90.16
2022-12-27T01:11:19.340Z,90.72
2022-12-27T01:13:46.809Z,91.39
2022-12-27T01:16:18.024Z,91.31
2022-12-27T01:18:45.267Z,90.59
2022-12-27T01:21:16.238Z,90.94
2022-12-27T01:23:45.221Z,90.40
2022-12-27T01:26:14.788Z,90.82
2022-12-27T01:28:41.436Z,90.57
2022-12-27T01:31:17.460Z,90.92
2022-12-27T01:33:44.626Z,91.79
2022-12-27T01:36:17.850Z,91.52
2022-12-27T01:38:44.654Z,91.19
2022-12-27T01:41:41.787Z,91.30
2022-12-27T01:44:39.538Z,90.81
2022-12-27T01:47:27.755Z,91.03
2022-12-27T01:49:57.467Z,90.54
2022-12-27T01:52:28.561Z,91.61
2022-12-27T01:54:59.909Z,91.40
2022-12-27T01:57:26.873Z,91.56
2022-12-27T01:59:53.599Z,91.64
2022-12-27T02:02:22.448Z,92.38
2022-12-27T02:04:49.404Z,91.81
2022-12-27T02:07:16.095Z,92.18
2022-12-27T02:09:49.189Z,92.48
2022-12-27T02:12:18.047Z,92.27
2022-12-27T02:14:47.290Z,91.29
2022-12-27T02:17:18.786Z,91.65
2022-12-27T02:20:01.681Z,92.46
2022-12-27T02:22:59.189Z,91.84
2022-12-27T02:25:47.017Z,92.41
2022-12-27T02:28:19.460Z,92.79
2022-12-27T02:30:49.423Z,92.60
2022-12-27T02:33:25.097Z,92.66
2022-12-27T02:36:00.368Z,92.91
2022-12-27T02:38:44.394Z,92.91
2022-12-27T02:41:30.761Z,93.05
2022-12-27T02:44:16.943Z,93.55
2022-12-27T02:47:03.446Z,93.33
2022-12-27T02:49:52.563Z,92.26
2022-12-27T02:53:02.943Z,92.74
2022-12-27T02:56:10.420Z,92.61
2022-12-27T02:59:21.879Z,93.24
2022-12-27T03:02:28.347Z,93.31
2022-12-27T03:04:55.036Z,93.58
2022-12-27T03:07:43.087Z,93.69
2022-12-27T03:10:59.960Z,93.40
2022-12-27T03:13:55.585Z,93.38
2022-12-27T03:16:32.950Z,93.54
2022-12-27T03:19:15.478Z,93.22
2022-12-27T03:22:07.943Z,93.39
2022-12-27T03:24:56.619Z,93.81
2022-12-27T03:27:31.500Z,93.73
2022-12-27T03:30:18.288Z,93.91
2022-12-27T03:33:24.532Z,94.13
2022-12-27T03:36:32.427Z,94.61
2022-12-27T03:39:19.204Z,94.39
2022-12-27T03:42:09.070Z,94.76
2022-12-27T03:44:35.843Z,93.90
2022-12-27T03:47:10.180Z,94.32
2022-12-27T03:49:48.441Z,94.18
2022-12-27T03:52:21.515Z,94.72
2022-12-27T03:54:50.864Z,94.85
2022-12-27T03:57:21.620Z,94.97
2022-12-27T03:59:48.640Z,95.00
2022-12-27T04:02:15.751Z,94.52
2022-12-27T04:04:42.512Z,94.65
2022-12-27T04:07:10.636Z,94.44
2022-12-27T04:09:56.012Z,93.78
2022-12-27T04:12:40.972Z,93.97
2022-12-27T04:15:26.114Z,93.25
2022-12-27T04:18:11.730Z,93.53
2022-12-27T04:20:57.195Z,93.25
2022-12-27T04:23:42.601Z,93.43
2022-12-27T04:26:28.139Z,93.37
2022-12-27T04:29:13.690Z,93.41
2022-12-27T04:31:58.563Z,93.74
2022-12-27T04:34:43.505Z,94.07
2022-12-27T04:37:13.861Z,93.28
2022-12-27T04:39:40.628Z,93.40
2022-12-27T04:42:25.952Z,93.17
2022-12-27T04:45:15.180Z,92.94
2022-12-27T04:48:00.908Z,93.23
2022-12-27T04:50:48.595Z,93.16
2022-12-27T04:53:38.915Z,93.28
2022-12-27T04:56:06.784Z,93.37
2022-12-27T04:58:33.757Z,93.55
2022-12-27T05:01:22.466Z,93.27
2022-12-27T05:03:51.900Z,93.49
2022-12-27T05:06:19.017Z,93.79
2022-12-27T05:09:04.606Z,93.63
2022-12-27T05:11:49.979Z,94.01
2022-12-27T05:14:16.564Z,93.52
2022-12-27T05:16:44.475Z,93.34
2022-12-27T05:19:12.906Z,93.57
2022-12-27T05:22:01.708Z,93.36
2022-12-27T05:24:48.853Z,93.42
2022-12-27T05:27:15.898Z,92.98
2022-12-27T05:29:42.588Z,93.22
2022-12-27T05:32:13.068Z,93.28
2022-12-27T05:34:40.909Z,92.75
2022-12-27T05:37:07.795Z,92.82
2022-12-27T05:39:34.666Z,93.45
2022-12-27T05:42:01.315Z,93.35
2022-12-27T05:44:27.921Z,93.41
2022-12-27T05:46:55.741Z,93.22
2022-12-27T05:49:22.489Z,93.13
2022-12-27T05:51:49.084Z,93.09
2022-12-27T05:54:15.798Z,92.71
2022-12-27T05:56:42.472Z,92.97
2022-12-27T05:59:09.119Z,92.74
2022-12-27T06:01:35.858Z,93.18
2022-12-27T06:04:02.773Z,93.05
2022-12-27T06:06:29.636Z,92.95
2022-12-27T06:08:56.273Z,92.81
2022-12-27T06:11:22.931Z,92.98
2022-12-27T06:13:52.054Z,92.80
2022-12-27T06:16:20.694Z,92.93
2022-12-27T06:18:47.402Z,92.87
2022-12-27T06:21:16.734Z,92.39
2022-12-27T06:23:44.739Z,92.23
2022-12-27T06:26:17.081Z,92.04
2022-12-27T06:28:43.830Z,92.08
2022-12-27T06:31:11.329Z,92.00
2022-12-27T06:33:38.011Z,91.73
2022-12-27T06:36:12.797Z,92.00
2022-12-27T06:38:39.978Z,91.72
2022-12-27T06:41:11.724Z,92.48
2022-12-27T06:43:39.510Z,92.16
2022-12-27T06:46:15.228Z,91.42
2022-12-27T06:48:44.896Z,91.47
2022-12-27T06:51:12.936Z,91.69
2022-12-27T06:53:39.945Z,91.52
2022-12-27T06:56:18.502Z,91.24
2022-12-27T06:58:47.351Z,91.77
2022-12-27T07:01:15.462Z,91.88
2022-12-27T07:03:42.394Z,91.99
2022-12-27T07:06:11.638Z,91.37
2022-12-27T07:08:38.413Z,91.55
2022-12-27T07:11:08.160Z,91.54
2022-12-27T07:13:40.252Z,90.98
2022-12-27T07:16:08.529Z,90.77
2022-12-27T07:18:35.393Z,90.28
2022-12-27T07:21:06.601Z,90.01
2022-12-27T07:23:33.392Z,90.15
2022-12-27T07:26:05.119Z,89.89
2022-12-27T07:28:32.528Z,90.09
2022-12-27T07:30:59.435Z,90.25
2022-12-27T07:33:26.264Z,89.38
2022-12-27T07:36:00.700Z,89.45
2022-12-27T07:38:27.800Z,89.37
2022-12-27T07:40:54.875Z,89.09
2022-12-27T07:43:21.462Z,88.61
2022-12-27T07:45:48.035Z,88.76
2022-12-27T07:48:14.695Z,88.29
2022-12-27T07:50:41.401Z,88.27
2022-12-27T07:53:08.140Z,88.30
2022-12-27T07:55:34.923Z,89.02
2022-12-27T07:58:01.638Z,88.14
2022-12-27T08:00:30.067Z,88.26
2022-12-27T08:02:56.836Z,87.99
2022-12-27T08:05:27.713Z,88.03
2022-12-27T08:07:54.843Z,88.09
2022-12-27T08:10:21.400Z,88.53
2022-12-27T08:12:47.991Z,88.51
2022-12-27T08:15:14.644Z,88.98
2022-12-27T08:17:41.221Z,88.36
2022-12-27T08:20:13.710Z,87.74
2022-12-27T08:22:40.657Z,87.96
2022-12-27T08:25:08.067Z,87.55
2022-12-27T08:27:34.723Z,87.57
2022-12-27T08:30:01.282Z,87.73
2022-12-27T08:32:27.863Z,87.84
2022-12-27T08:34:54.488Z,88.18
2022-12-27T08:37:21.252Z,88.14
2022-12-27T08:39:47.814Z,88.15
2022-12-27T08:42:14.556Z,88.32
2022-12-27T08:44:41.139Z,88.74
2022-12-27T08:47:07.744Z,88.24
2022-12-27T08:49:34.403Z,88.22
2022-12-27T08:52:01.093Z,88.31
2022-12-27T08:54:27.649Z,88.42
2022-12-27T08:56:54.259Z,88.45
2022-12-27T08:59:21.416Z,88.50
2022-12-27T09:01:48.101Z,88.03
2022-12-27T09:04:14.803Z,88.24
2022-12-27T09:06:42.151Z,88.23
2022-12-27T09:09:08.887Z,87.98
2022-12-27T09:11:35.711Z,87.84
2022-12-27T09:14:04.139Z,88.13
2022-12-27T09:16:31.411Z,88.25
2022-12-27T09:18:59.036Z,87.79
2022-12-27T09:21:29.147Z,86.37
2022-12-27T09:23:56.052Z,86.01
2022-12-27T09:26:26.226Z,85.74
2022-12-27T09:28:53.284Z,85.62
2022-12-27T09:31:21.228Z,85.57
2022-12-27T09:33:48.102Z,85.62
2022-12-27T09:36:18.127Z,86.55
2022-12-27T09:38:45.568Z,86.04
2022-12-27T09:42:45.906Z,86.37
2022-12-27T09:44:52.490Z,85.62
2022-12-27T09:47:26.481Z,85.85
2022-12-27T09:49:58.329Z,86.02
2022-12-27T09:52:34.145Z,85.95
2022-12-27T09:55:23.653Z,86.21
2022-12-27T09:57:57.210Z,86.81
2022-12-27T10:00:34.500Z,86.81
2022-12-27T10:03:05.270Z,85.99
2022-12-27T10:05:36.368Z,86.01
2022-12-27T10:08:06.042Z,86.54
2022-12-27T10:10:47.404Z,86.44
2022-12-27T10:13:39.735Z,85.88
2022-12-27T10:16:25.590Z,86.05
2022-12-27T10:19:01.471Z,86.19
2022-12-27T10:21:30.224Z,85.83
2022-12-27T10:24:02.678Z,85.23
2022-12-27T10:26:29.485Z,85.50
2022-12-27T10:29:04.271Z,84.64
2022-12-27T10:31:32.245Z,84.70
2022-12-27T10:34:00.315Z,84.59
2022-12-27T10:36:29.622Z,85.90
2022-12-27T10:38:56.769Z,85.12
2022-12-27T10:41:33.714Z,85.97
2022-12-27T10:44:00.346Z,85.73
2022-12-27T10:46:33.067Z,84.94
2022-12-27T10:51:49.763Z,84.59
2022-12-27T10:54:29.635Z,84.33
2022-12-27T10:56:57.336Z,84.30
2022-12-27T10:59:29.256Z,83.85
2022-12-27T11:02:02.738Z,84.28
2022-12-27T11:04:31.009Z,85.09
2022-12-27T11:06:59.788Z,84.96
2022-12-27T11:09:44.963Z,85.69
2022-12-27T11:12:21.734Z,84.08
2022-12-27T11:15:19.362Z,84.06
2022-12-27T11:17:53.510Z,83.79
2022-12-27T11:20:21.623Z,83.98
2022-12-27T11:22:59.231Z,83.67
2022-12-27T11:25:27.536Z,83.65
2022-12-27T11:28:02.709Z,83.83
2022-12-27T11:30:36.719Z,84.08
2022-12-27T11:33:07.679Z,83.88
2022-12-27T11:35:44.911Z,84.83
2022-12-27T11:38:24.534Z,84.48
2022-12-27T11:41:15.398Z,84.70
2022-12-27T11:43:50.697Z,85.25
2022-12-27T11:46:42.507Z,84.60
2022-12-27T11:49:20.641Z,85.38
2022-12-27T11:52:05.906Z,84.51
2022-12-27T11:54:59.490Z,84.54
2022-12-27T11:58:02.623Z,83.49
2022-12-27T12:00:36.743Z,84.01
2022-12-27T12:03:33.903Z,84.83
2022-12-27T12:06:38.037Z,84.36
2022-12-27T12:09:13.438Z,84.12
2022-12-27T12:11:55.097Z,85.18
2022-12-27T12:15:06.911Z,83.87
2022-12-27T12:17:59.478Z,83.63
2022-12-27T12:20:50.696Z,83.83
2022-12-27T12:24:06.703Z,84.45
2022-12-27T12:26:57.881Z,83.73
2022-12-27T12:29:33.429Z,82.93
2022-12-27T12:32:34.122Z,83.11
2022-12-27T12:35:16.590Z,82.56
2022-12-27T12:38:10.384Z,83.22
2022-12-27T12:40:45.116Z,82.11
2022-12-27T12:43:49.196Z,81.85
2022-12-27T12:46:42.967Z,81.81
2022-12-27T12:49:41.647Z,83.23
2022-12-27T12:52:46.570Z,82.42
2022-12-27T12:55:42.453Z,83.55
2022-12-27T12:59:04.789Z,83.55
2022-12-27T13:01:54.211Z,83.94
2022-12-27T13:04:56.171Z,83.62
2022-12-27T13:08:00.255Z,83.40
2022-12-27T13:10:42.074Z,81.73
2022-12-27T13:13:26.181Z,81.63
2022-12-27T13:16:11.725Z,81.70
2022-12-27T13:18:58.129Z,81.68
2022-12-27T13:21:49.329Z,81.56
2022-12-27T13:24:38.682Z,81.25
2022-12-27T13:27:20.596Z,81.71
2022-12-27T13:30:20.138Z,81.49
2022-12-27T13:32:46.712Z,81.79
2022-12-27T13:35:38.975Z,81.36
2022-12-27T13:38:14.584Z,82.06
2022-12-27T13:40:50.125Z,81.42
2022-12-27T13:43:33.319Z,82.74
2022-12-27T13:46:34.159Z,82.55
2022-12-27T13:49:43.066Z,81.90
2022-12-27T13:52:45.773Z,82.00
2022-12-27T13:55:30.779Z,82.92
2022-12-27T13:58:23.024Z,81.85
2022-12-27T14:01:07.191Z,82.69
2022-12-27T14:03:40.231Z,82.34
2022-12-27T14:06:51.813Z,82.18
2022-12-27T14:09:56.652Z,83.22
2022-12-27T14:12:42.036Z,82.13
2022-12-27T14:15:15.717Z,83.13
2022-12-27T14:18:21.755Z,82.18
2022-12-27T14:21:12.903Z,82.09
2022-12-27T14:23:42.439Z,83.37
2022-12-27T14:26:43.533Z,83.07
2022-12-27T14:29:39.966Z,83.59
2022-12-27T14:32:40.717Z,83.51
2022-12-27T14:35:45.553Z,83.23
2022-12-27T14:38:21.310Z,82.31
2022-12-27T14:41:05.889Z,83.34
2022-12-27T14:44:02.451Z,83.30
2022-12-27T14:46:38.083Z,82.99
2022-12-27T14:49:35.492Z,82.74
2022-12-27T14:52:15.478Z,83.48
2022-12-27T14:55:15.623Z,82.88
2022-12-27T14:58:01.201Z,83.73
2022-12-27T15:00:33.369Z,84.55
2022-12-27T15:03:35.772Z,84.51
2022-12-27T15:06:07.327Z,84.86
2022-12-27T15:08:52.785Z,85.11
2022-12-27T15:11:46.672Z,85.60
2022-12-27T15:14:50.635Z,86.02
2022-12-27T15:17:42.249Z,86.75
2022-12-27T15:20:37.247Z,86.47
2022-12-27T15:23:31.351Z,86.92
2022-12-27T15:26:22.631Z,86.99
2022-12-27T15:29:14.536Z,87.45
2022-12-27T15:32:15.298Z,87.98
2022-12-27T15:34:54.151Z,88.11
2022-12-27T15:37:48.451Z,88.04
2022-12-27T15:40:27.188Z,88.70
2022-12-27T15:43:01.085Z,88.22
2022-12-27T15:45:49.703Z,88.58
2022-12-27T15:48:53.451Z,88.79
2022-12-27T15:51:41.590Z,89.23
2022-12-27T15:54:51.854Z,89.53
2022-12-27T15:57:44.903Z,89.41
2022-12-27T16:00:27.885Z,89.77
2022-12-27T16:03:00.299Z,90.04
2022-12-27T16:05:46.070Z,89.95
2022-12-27T16:08:26.100Z,90.40
2022-12-27T16:10:53.236Z,90.30
2022-12-27T16:13:39.419Z,91.02
2022-12-27T16:16:38.569Z,91.03
2022-12-27T16:19:09.428Z,90.94
2022-12-27T16:21:43.379Z,92.29
2022-12-27T16:24:22.393Z,92.87
2022-12-27T16:26:57.305Z,92.80
2022-12-27T16:29:28.732Z,92.81
2022-12-27T16:32:20.504Z,93.06
2022-12-27T16:34:51.601Z,92.57
2022-12-27T16:37:31.507Z,93.03
2022-12-27T16:40:37.917Z,93.15
2022-12-27T16:43:10.279Z,93.51
2022-12-27T16:45:39.927Z,94.16
2022-12-27T16:48:48.547Z,94.03
2022-12-27T16:51:50.295Z,94.23
2022-12-27T16:54:36.102Z,94.32
2022-12-27T16:57:43.002Z,93.98
2022-12-27T17:00:10.296Z,94.38
2022-12-27T17:02:36.902Z,94.34
2022-12-27T17:05:31.673Z,93.98
2022-12-27T17:07:58.217Z,94.33
2022-12-27T17:10:27.933Z,94.71
2022-12-27T17:12:59.567Z,94.55
2022-12-27T17:15:27.444Z,94.07
2022-12-27T17:18:08.988Z,94.11
2022-12-27T17:20:38.169Z,94.32
2022-12-27T17:23:05.706Z,95.01
2022-12-27T17:26:02.585Z,95.31
2022-12-27T17:28:37.867Z,95.59
2022-12-27T17:31:13.518Z,95.83
2022-12-27T17:34:03.711Z,96.12
2022-12-27T17:37:15.120Z,96.30
2022-12-27T17:40:19.188Z,96.56
2022-12-27T17:43:20.132Z,96.68
2022-12-27T17:45:59.657Z,96.69
2022-12-27T17:48:29.413Z,96.49
2022-12-27T17:51:09.553Z,96.18
2022-12-27T17:54:04.303Z,96.45
2022-12-27T17:56:59.834Z,96.47
2022-12-27T17:59:29.037Z,96.60
2022-12-27T18:02:04.813Z,97.11
2022-12-27T18:04:35.592Z,97.29
2022-12-27T18:07:09.001Z,97.20
2022-12-27T18:09:50.575Z,96.83
2022-12-27T18:12:34.367Z,97.42
2022-12-27T18:15:05.003Z,97.30
2022-12-27T18:17:42.024Z,97.26
2022-12-27T18:20:38.518Z,97.53
2022-12-27T18:23:06.032Z,97.80
2022-12-27T18:25:33.953Z,98.00
2022-12-27T18:28:15.135Z,98.38
2022-12-27T18:30:56.974Z,98.19
2022-12-27T18:33:31.973Z,98.19
2022-12-27T18:36:02.025Z,97.49
2022-12-27T18:38:57.985Z,97.90
2022-12-27T18:41:26.287Z,97.93
2022-12-27T18:44:00.078Z,98.75
2022-12-27T18:46:37.012Z,98.19
2022-12-27T18:49:04.447Z,98.39
2022-12-27T18:51:37.464Z,98.08
2022-12-27T18:54:22.332Z,98.22
2022-12-27T18:56:53.918Z,97.89
2022-12-27T18:59:22.514Z,97.19
2022-12-27T19:01:49.201Z,97.37
2022-12-27T19:04:18.790Z,97.38
2022-12-27T19:06:57.963Z,97.88
2022-12-27T19:09:34.909Z,98.00
2022-12-27T19:12:08.424Z,98.59
2022-12-27T19:14:42.568Z,98.30
2022-12-27T19:17:25.894Z,98.62
2022-12-27T19:20:06.084Z,98.41
2022-12-27T19:22:42.730Z,98.77
2022-12-27T19:25:29.931Z,98.41
2022-12-27T19:28:16.962Z,98.64
2022-12-27T19:30:46.167Z,98.56
2022-12-27T19:33:34.417Z,98.47
2022-12-27T19:36:03.637Z,98.40
2022-12-27T19:38:33.263Z,98.84
2022-12-27T19:41:03.933Z,99.36
2022-12-27T19:43:44.567Z,99.16
2022-12-27T19:46:12.615Z,98.77
2022-12-27T19:48:40.119Z,98.49
2022-12-27T19:51:07.812Z,97.93
2022-12-27T19:53:39.618Z,98.25
2022-12-27T19:56:10.675Z,98.66
2022-12-27T19:58:37.584Z,98.87
2022-12-27T20:01:04.453Z,98.68
2022-12-27T20:03:31.096Z,98.69
2022-12-27T20:06:12.922Z,98.41
2022-12-27T20:08:43.801Z,98.43
2022-12-27T20:11:15.714Z,98.52
2022-12-27T20:13:43.307Z,98.84
2022-12-27T20:16:15.765Z,98.74
2022-12-27T20:18:43.522Z,98.65
2022-12-27T20:21:18.472Z,98.66
2022-12-27T20:23:45.795Z,99.21
2022-12-27T20:26:14.034Z,99.16
2022-12-27T20:28:41.154Z,99.36
2022-12-27T20:31:09.585Z,99.34
2022-12-27T20:33:36.910Z,99.09
2022-12-27T20:36:04.294Z,98.97
2022-12-27T20:38:31.360Z,98.84
2022-12-27T20:41:09.413Z,98.08
2022-12-27T20:43:36.809Z,98.31
2022-12-27T20:46:14.996Z,98.09
2022-12-27T20:48:43.368Z,97.70
2022-12-27T20:51:12.786Z,97.50
2022-12-27T20:53:39.547Z,97.50
2022-12-27T20:56:08.832Z,97.35
2022-12-27T20:58:35.598Z,96.98
2022-12-27T21:01:09.021Z,96.85
2022-12-27T21:03:37.213Z,96.91
2022-12-27T21:06:08.997Z,96.76
2022-12-27T21:08:44.553Z,96.80
2022-12-27T21:11:17.763Z,95.98
2022-12-27T21:13:45.343Z,95.40
2022-12-27T21:16:26.846Z,94.90
2022-12-27T21:18:54.651Z,94.89
2022-12-27T21:21:27.390Z,94.22
2022-12-27T21:23:54.908Z,93.71
2022-12-27T21:26:24.821Z,93.91
2022-12-27T21:28:51.863Z,94.39
2022-12-27T21:31:19.331Z,94.88
2022-12-27T21:33:46.633Z,94.60
2022-12-27T21:36:16.384Z,94.50
2022-12-27T21:38:43.254Z,94.49
2022-12-27T21:41:13.770Z,93.69
2022-12-27T21:43:40.718Z,93.85
2022-12-27T21:46:13.439Z,93.73
2022-12-27T21:48:40.647Z,93.89
2022-12-27T21:51:09.750Z,93.94
2022-12-27T21:53:36.406Z,94.03
2022-12-27T21:56:04.019Z,94.20
2022-12-27T21:58:32.277Z,94.04
2022-12-27T22:01:08.663Z,93.59
2022-12-27T22:03:38.940Z,93.48
2022-12-27T22:06:17.773Z,93.15
2022-12-27T22:08:50.429Z,93.61
2022-12-27T22:11:20.027Z,93.61
2022-12-27T22:13:47.207Z,93.48
2022-12-27T22:16:16.772Z,93.56
2022-12-27T22:18:45.108Z,93.52
2022-12-27T22:21:14.547Z,93.86
2022-12-27T22:23:44.189Z,93.80
2022-12-27T22:26:13.435Z,94.01
2022-12-27T22:28:41.109Z,94.11
2022-12-27T22:31:10.126Z,94.69
2022-12-27T22:33:37.321Z,94.53
2022-12-27T22:36:05.248Z,94.97
2022-12-27T22:38:33.168Z,95.02
2022-12-27T22:41:11.640Z,95.37
2022-12-27T22:43:39.368Z,95.40
2022-12-27T22:46:08.110Z,94.97
2022-12-27T22:48:35.478Z,95.10
2022-12-27T22:51:08.970Z,95.66
2022-12-27T22:53:35.913Z,95.89
2022-12-27T22:56:02.547Z,95.97
2022-12-27T22:58:31.251Z,96.31
2022-12-27T23:00:58.717Z,96.30
2022-12-27T23:03:25.515Z,96.11
2022-12-27T23:05:59.765Z,96.04
2022-12-27T23:08:26.482Z,96.01
2022-12-27T23:10:53.594Z,96.16
2022-12-27T23:13:22.332Z,96.19
2022-12-27T23:16:00.351Z,96.25
2022-12-27T23:18:28.068Z,96.19
2022-12-27T23:21:20.754Z,96.38
2022-12-27T23:23:43.205Z,96.19
2022-12-27T23:26:13.782Z,96.36
2022-12-27T23:28:42.722Z,96.18
2022-12-27T23:31:12.855Z,96.06
2022-12-27T23:33:41.871Z,96.42
2022-12-27T23:36:09.964Z,96.57
2022-12-27T23:38:36.694Z,96.41
2022-12-27T23:41:05.280Z,96.46
2022-12-27T23:46:33.422Z,95.59
2022-12-27T23:49:03.158Z,95.23
2022-12-27T23:51:31.509Z,95.16
2022-12-27T23:53:58.197Z,94.87
2022-12-27T23:56:30.002Z,94.83
2022-12-27T23:58:58.175Z,94.65
